createdAt,value
2018-06-05T00:01:01.008Z,96134.01
2018-06-05T00:03:29.723Z,96113.20
2018-06-05T00:05:58.596Z,96116.95
2018-06-05T00:08:27.375Z,96095.20
2018-06-05T00:10:56.165Z,96105.72
2018-06-05T00:13:24.873Z,96087.42
2018-06-05T00:15:53.611Z,96066.91
2018-06-05T00:18:22.316Z,96077.72
2018-06-05T00:20:51.049Z,96075.83
2018-06-05T00:23:19.705Z,96051.90
2018-06-05T00:25:48.474Z,96042.44
2018-06-05T00:28:17.062Z,96048.31
2018-06-05T00:30:45.829Z,96047.55
2018-06-05T00:33:14.483Z,96041.59
2018-06-05T00:35:43.289Z,96038.11
2018-06-05T00:38:12.088Z,96021.89
2018-06-05T00:40:40.840Z,96046.55
2018-06-05T00:43:09.707Z,96065.97
2018-06-05T00:45:43.613Z,96077.18
2018-06-05T00:48:12.528Z,96075.12
2018-06-05T00:50:41.272Z,96046.11
2018-06-05T00:53:10.151Z,96040.32
2018-06-05T00:55:39.076Z,96045.81
2018-06-05T00:58:07.864Z,96044.95
2018-06-05T01:00:36.585Z,96046.30
2018-06-05T01:03:05.579Z,96051.05
2018-06-05T01:05:35.068Z,96066.84
2018-06-05T01:08:03.826Z,96068.57
2018-06-05T01:10:32.452Z,96037.61
2018-06-05T01:13:01.181Z,96040.89
2018-06-05T01:15:30.142Z,96040.27
2018-06-05T01:17:58.890Z,96054.05
2018-06-05T01:20:27.820Z,96048.37
2018-06-05T01:22:56.779Z,96032.91
2018-06-05T01:25:25.856Z,96025.55
2018-06-05T01:27:54.809Z,96021.22
2018-06-05T01:30:23.631Z,96007.92
2018-06-05T01:32:52.281Z,96003.56
2018-06-05T01:35:20.972Z,96013.23
2018-06-05T01:37:49.753Z,96008.55
2018-06-05T01:40:18.463Z,96004.69
2018-06-05T01:42:47.429Z,96002.11
2018-06-05T01:45:16.184Z,95994.03
2018-06-05T01:47:45.006Z,95981.70
2018-06-05T01:50:13.777Z,95987.53
2018-06-05T01:52:42.460Z,95985.30
2018-06-05T01:55:11.181Z,95979.26
2018-06-05T01:57:39.881Z,95966.12
2018-06-05T02:00:08.709Z,95974.58
2018-06-05T02:02:37.386Z,95971.17
2018-06-05T02:05:06.040Z,95970.74
2018-06-05T02:07:34.804Z,95974.05
2018-06-05T02:10:03.721Z,95981.64
2018-06-05T02:12:32.365Z,95976.13
2018-06-05T02:15:01.218Z,95973.19
2018-06-05T02:17:30.084Z,95978.33
2018-06-05T02:19:58.938Z,95977.03
2018-06-05T02:22:27.768Z,95982.08
2018-06-05T02:24:56.661Z,95970.56
2018-06-05T02:27:25.530Z,95977.67
2018-06-05T02:29:54.319Z,95976.81
2018-06-05T02:32:23.238Z,95977.61
2018-06-05T02:34:52.044Z,95977.61
2018-06-05T02:37:21.007Z,95978.84
2018-06-05T02:39:50.176Z,95979.69
2018-06-05T02:42:19.041Z,95971.57
2018-06-05T02:44:48.082Z,95949.46
2018-06-05T02:47:16.847Z,95963.83
2018-06-05T02:49:45.720Z,95958.25
2018-06-05T02:52:14.611Z,95973.85
2018-06-05T02:54:43.605Z,95970.78
2018-06-05T02:57:12.629Z,95976.26
2018-06-05T02:59:41.479Z,95971.58
2018-06-05T03:02:10.722Z,95973.38
2018-06-05T03:04:39.619Z,95972.68
2018-06-05T03:07:08.629Z,95973.18
2018-06-05T03:09:37.378Z,95964.39
2018-06-05T03:12:06.158Z,95966.99
2018-06-05T03:14:34.900Z,95964.89
2018-06-05T03:17:03.681Z,95970.06
2018-06-05T03:19:32.361Z,95966.84
2018-06-05T03:22:01.161Z,95986.38
2018-06-05T03:24:29.863Z,95985.70
2018-06-05T03:26:58.657Z,95998.00
2018-06-05T03:29:27.314Z,96011.13
2018-06-05T03:31:56.053Z,95998.49
2018-06-05T03:34:24.745Z,96004.91
2018-06-05T03:36:53.517Z,95991.74
2018-06-05T03:39:22.436Z,95974.83
2018-06-05T03:41:51.053Z,95990.66
2018-06-05T03:44:19.844Z,96019.05
2018-06-05T03:46:48.599Z,96011.45
2018-06-05T03:49:17.457Z,96022.48
2018-06-05T03:51:46.473Z,96009.08
2018-06-05T03:54:15.353Z,96013.41
2018-06-05T03:56:44.277Z,96021.24
2018-06-05T03:59:13.186Z,96022.55
2018-06-05T04:01:42.560Z,96023.92
2018-06-05T04:04:11.680Z,96022.91
2018-06-05T04:06:40.864Z,96024.63
2018-06-05T04:09:09.621Z,96028.29
2018-06-05T04:11:38.523Z,96040.38
2018-06-05T04:14:07.349Z,96048.93
2018-06-05T04:16:36.035Z,96085.70
2018-06-05T04:19:04.990Z,96126.66
2018-06-05T04:21:33.789Z,96118.23
2018-06-05T04:24:02.548Z,96136.31
2018-06-05T04:26:31.482Z,96115.38
2018-06-05T04:29:00.354Z,96114.12
2018-06-05T04:31:29.253Z,96126.45
2018-06-05T04:33:58.176Z,96122.10
2018-06-05T04:36:26.879Z,96127.46
2018-06-05T04:38:55.780Z,96125.75
2018-06-05T04:41:24.472Z,96131.64
2018-06-05T04:43:53.342Z,96104.61
2018-06-05T04:46:22.079Z,96116.41
2018-06-05T04:48:50.954Z,96128.34
2018-06-05T04:51:19.673Z,96144.37
2018-06-05T04:53:48.609Z,96146.47
2018-06-05T04:56:17.266Z,96278.75
2018-06-05T04:58:45.877Z,96385.91
2018-06-05T05:01:14.708Z,96448.87
2018-06-05T05:03:43.483Z,96519.93
2018-06-05T05:06:12.072Z,96498.78
2018-06-05T05:08:40.723Z,96524.03
2018-06-05T05:11:09.472Z,96558.91
2018-06-05T05:13:38.211Z,96580.70
2018-06-05T05:16:06.835Z,96642.25
2018-06-05T05:18:35.462Z,96605.64
2018-06-05T05:21:04.114Z,96682.22
2018-06-05T05:23:32.707Z,96708.27
2018-06-05T05:26:01.469Z,96712.78
2018-06-05T05:28:30.137Z,96740.52
2018-06-05T05:30:58.800Z,96780.06
2018-06-05T05:33:27.451Z,96793.16
2018-06-05T05:35:56.197Z,96688.31
2018-06-05T05:38:24.877Z,96739.66
2018-06-05T05:40:54.038Z,96718.19
2018-06-05T05:43:22.769Z,96713.63
2018-06-05T05:45:51.554Z,96745.25
2018-06-05T05:48:20.132Z,96702.97
2018-06-05T05:50:48.895Z,96606.06
2018-06-05T05:53:17.452Z,96596.16
2018-06-05T05:55:46.016Z,96516.39
2018-06-05T05:58:14.514Z,96597.55
2018-06-05T06:00:43.173Z,96553.83
2018-06-05T06:03:11.674Z,96533.13
2018-06-05T06:05:40.227Z,96450.08
2018-06-05T06:08:08.960Z,96415.03
2018-06-05T06:10:37.504Z,96409.90
2018-06-05T06:13:06.176Z,96478.38
2018-06-05T06:15:34.740Z,96396.19
2018-06-05T06:18:03.279Z,96534.89
2018-06-05T06:20:31.795Z,96582.97
2018-06-05T06:23:00.409Z,96520.37
2018-06-05T06:25:28.954Z,96539.55
2018-06-05T06:27:57.476Z,96665.98
2018-06-05T06:30:26.810Z,96778.20
2018-06-05T06:32:55.355Z,96782.03
2018-06-05T06:35:23.872Z,96805.88
2018-06-05T06:37:52.420Z,96839.48
2018-06-05T06:40:20.916Z,96793.28
2018-06-05T06:42:49.440Z,96837.26
2018-06-05T06:45:24.581Z,96887.99
2018-06-05T06:47:53.165Z,96932.44
2018-06-05T06:50:21.684Z,96934.64
2018-06-05T06:52:50.222Z,96941.89
2018-06-05T06:55:18.709Z,96936.39
2018-06-05T06:57:47.247Z,96939.03
2018-06-05T07:00:15.761Z,96940.82
2018-06-05T07:02:44.478Z,96923.28
2018-06-05T07:05:13.015Z,96894.88
2018-06-05T07:07:41.521Z,96922.28
2018-06-05T07:10:10.044Z,96941.93
2018-06-05T07:12:38.563Z,96948.88
2018-06-05T07:15:07.124Z,96951.93
2018-06-05T07:17:35.709Z,96959.21
2018-06-05T07:20:04.242Z,96957.30
2018-06-05T07:22:32.744Z,96962.13
2018-06-05T07:25:01.248Z,96969.53
2018-06-05T07:27:29.764Z,96961.67
2018-06-05T07:29:58.281Z,96956.89
2018-06-05T07:32:26.774Z,96954.52
2018-06-05T07:34:55.369Z,96955.31
2018-06-05T07:37:23.927Z,96956.77
2018-06-05T07:39:52.424Z,96958.30
2018-06-05T07:42:20.933Z,96953.84
2018-06-05T07:44:49.441Z,96949.74
2018-06-05T07:47:17.957Z,96951.05
2018-06-05T07:49:46.477Z,96943.53
2018-06-05T07:52:14.978Z,96946.23
2018-06-05T07:54:43.500Z,96949.61
2018-06-05T07:57:12.006Z,96948.72
2018-06-05T07:59:40.557Z,96947.55
2018-06-05T08:02:09.082Z,96948.48
2018-06-05T08:04:37.587Z,96950.05
2018-06-05T08:07:06.112Z,96955.03
2018-06-05T08:09:34.592Z,96946.64
2018-06-05T08:12:03.097Z,96951.33
2018-06-05T08:14:31.600Z,96952.64
2018-06-05T08:17:00.095Z,96954.72
2018-06-05T08:19:28.583Z,96944.98
2018-06-05T08:21:57.084Z,96960.67
2018-06-05T08:24:25.648Z,96956.75
2018-06-05T08:26:54.767Z,96949.36
2018-06-05T08:29:23.293Z,96950.73
2018-06-05T08:31:51.817Z,96948.58
2018-06-05T08:34:20.317Z,96947.26
2018-06-05T08:36:48.817Z,96951.64
2018-06-05T08:39:17.311Z,96943.63
2018-06-05T08:41:45.809Z,96946.89
2018-06-05T08:44:14.300Z,96951.33
2018-06-05T08:46:42.836Z,96948.91
2018-06-05T08:49:11.345Z,96950.70
2018-06-05T08:51:39.863Z,96943.70
2018-06-05T08:54:08.363Z,96944.87
2018-06-05T08:56:36.932Z,96944.83
2018-06-05T08:59:05.532Z,96938.70
2018-06-05T09:01:34.056Z,96943.07
2018-06-05T09:04:02.547Z,96948.78
2018-06-05T09:06:31.061Z,96935.06
2018-06-05T09:08:59.585Z,96937.28
2018-06-05T09:11:28.114Z,96938.91
2018-06-05T09:13:56.640Z,96939.84
2018-06-05T09:16:25.123Z,96944.51
2018-06-05T09:18:53.640Z,96940.92
2018-06-05T09:21:22.125Z,96942.09
2018-06-05T09:23:50.656Z,96940.17
2018-06-05T09:26:19.225Z,96941.09
2018-06-05T09:28:47.769Z,96948.73
2018-06-05T09:31:16.270Z,96940.77
2018-06-05T09:33:44.781Z,96934.83
2018-06-05T09:36:13.305Z,96930.93
2018-06-05T09:38:41.838Z,96935.17
2018-06-05T09:41:10.349Z,96936.17
2018-06-05T09:43:38.896Z,96942.31
2018-06-05T09:46:07.388Z,96939.08
2018-06-05T09:48:35.902Z,96941.83
2018-06-05T09:51:04.405Z,96937.55
2018-06-05T09:53:32.927Z,96932.75
2018-06-05T09:56:01.445Z,96930.93
2018-06-05T09:58:30.055Z,96938.45
2018-06-05T10:00:58.477Z,96932.52
2018-06-05T10:03:27.002Z,96929.95
2018-06-05T10:05:55.551Z,96931.93
2018-06-05T10:08:24.040Z,96942.09
2018-06-05T10:10:52.576Z,96931.09
2018-06-05T10:13:21.079Z,96935.44
2018-06-05T10:15:49.589Z,96934.13
2018-06-05T10:18:18.099Z,96928.80
2018-06-05T10:20:46.633Z,96930.48
2018-06-05T10:23:15.160Z,96918.87
2018-06-05T10:25:43.780Z,96926.11
2018-06-05T10:28:12.441Z,96928.83
2018-06-05T10:30:40.957Z,96920.80
2018-06-05T10:33:09.484Z,96916.17
2018-06-05T10:35:37.997Z,96925.95
2018-06-05T10:38:06.701Z,96923.84
2018-06-05T10:40:35.220Z,96918.08
2018-06-05T10:43:03.718Z,96922.34
2018-06-05T10:45:32.215Z,96918.20
2018-06-05T10:48:00.708Z,96917.80
2018-06-05T10:50:29.533Z,96914.27
2018-06-05T10:52:58.028Z,96918.59
2018-06-05T10:55:26.574Z,96928.91
2018-06-05T10:57:55.080Z,96918.50
2018-06-05T11:00:23.651Z,96910.56
2018-06-05T11:02:52.176Z,96903.58
2018-06-05T11:05:20.700Z,96909.78
2018-06-05T11:07:49.221Z,96907.70
2018-06-05T11:10:17.699Z,96904.77
2018-06-05T11:12:46.344Z,96909.72
2018-06-05T11:15:14.798Z,96900.45
2018-06-05T11:17:43.341Z,96905.41
2018-06-05T11:20:11.864Z,96903.88
2018-06-05T11:22:40.393Z,96904.92
2018-06-05T11:25:08.969Z,96901.80
2018-06-05T11:27:37.504Z,96902.23
2018-06-05T11:30:06.072Z,96899.56
2018-06-05T11:32:34.555Z,96899.25
2018-06-05T11:35:03.162Z,96908.76
2018-06-05T11:37:32.237Z,96891.22
2018-06-05T11:40:01.292Z,96880.12
2018-06-05T11:42:30.197Z,96875.57
2018-06-05T11:44:58.943Z,96880.85
2018-06-05T11:47:27.617Z,96881.89
2018-06-05T11:49:56.340Z,96883.84
2018-06-05T11:52:25.062Z,96887.05
2018-06-05T11:54:53.789Z,96888.51
2018-06-05T11:57:22.573Z,96880.03
2018-06-05T11:59:51.149Z,96879.30
2018-06-05T12:02:19.790Z,96876.93
2018-06-05T12:04:48.564Z,96880.06
2018-06-05T12:07:17.528Z,96863.63
2018-06-05T12:09:46.480Z,96864.88
2018-06-05T12:12:15.303Z,96870.12
2018-06-05T12:14:44.041Z,96858.52
2018-06-05T12:17:12.773Z,96859.75
2018-06-05T12:19:41.481Z,96853.36
2018-06-05T12:22:10.293Z,96840.63
2018-06-05T12:24:39.160Z,96848.11
2018-06-05T12:27:07.877Z,96842.83
2018-06-05T12:29:36.486Z,96841.77
2018-06-05T12:32:05.056Z,96839.16
2018-06-05T12:34:33.755Z,96840.86
2018-06-05T12:37:02.375Z,96848.79
2018-06-05T12:39:31.102Z,96833.59
2018-06-05T12:42:00.092Z,96836.45
2018-06-05T12:44:28.888Z,96839.59
2018-06-05T12:46:57.569Z,96828.29
2018-06-05T12:49:26.213Z,96825.47
2018-06-05T12:51:55.052Z,96822.58
2018-06-05T12:54:23.760Z,96817.41
2018-06-05T12:56:52.665Z,96820.34
2018-06-05T12:59:21.386Z,96827.49
2018-06-05T13:01:50.204Z,96826.88
2018-06-05T13:04:18.942Z,96822.73
2018-06-05T13:06:47.655Z,96806.45
2018-06-05T13:09:16.360Z,96811.76
2018-06-05T13:11:45.368Z,96821.45
2018-06-05T13:14:14.126Z,96816.22
2018-06-05T13:16:43.015Z,96805.34
2018-06-05T13:19:18.346Z,96799.95
2018-06-05T13:21:47.337Z,96791.98
2018-06-05T13:24:15.988Z,96794.59
2018-06-05T13:26:44.754Z,96785.00
2018-06-05T13:29:13.338Z,96790.31
2018-06-05T13:31:42.040Z,96789.36
2018-06-05T13:34:10.806Z,96789.32
2018-06-05T13:36:39.956Z,96795.94
2018-06-05T13:39:09.694Z,96794.63
2018-06-05T13:41:38.545Z,96790.46
2018-06-05T13:44:07.895Z,96797.61
2018-06-05T13:46:36.713Z,96793.69
2018-06-05T13:49:05.567Z,96784.85
2018-06-05T13:51:34.643Z,96790.09
2018-06-05T13:54:03.474Z,96787.70
2018-06-05T13:56:32.401Z,96777.58
2018-06-05T13:59:01.052Z,96778.69
2018-06-05T14:01:29.854Z,96779.64
2018-06-05T14:03:58.550Z,96778.40
2018-06-05T14:06:27.332Z,96782.33
2018-06-05T14:08:56.132Z,96776.36
2018-06-05T14:11:25.060Z,96777.33
2018-06-05T14:13:53.962Z,96773.09
2018-06-05T14:16:22.802Z,96769.27
2018-06-05T14:18:51.628Z,96773.77
2018-06-05T14:21:20.503Z,96775.64
2018-06-05T14:23:49.194Z,96769.09
2018-06-05T14:26:17.910Z,96774.47
2018-06-05T14:28:46.709Z,96770.66
2018-06-05T14:31:15.498Z,96775.66
2018-06-05T14:33:44.279Z,96772.41
2018-06-05T14:36:13.065Z,96773.67
2018-06-05T14:38:41.804Z,96770.41
2018-06-05T14:41:10.547Z,96769.27
2018-06-05T14:43:39.245Z,96762.34
2018-06-05T14:46:08.058Z,96763.42
2018-06-05T14:48:36.941Z,96755.47
2018-06-05T14:51:05.645Z,96760.41
2018-06-05T14:53:34.362Z,96762.05
2018-06-05T14:56:03.275Z,96758.19
2018-06-05T14:58:31.992Z,96748.00
2018-06-05T15:01:00.598Z,96759.41
2018-06-05T15:03:29.149Z,96757.80
2018-06-05T15:05:57.964Z,96757.58
2018-06-05T15:08:26.731Z,96753.23
2018-06-05T15:10:55.615Z,96753.30
2018-06-05T15:13:24.581Z,96752.84
2018-06-05T15:15:53.388Z,96748.93
2018-06-05T15:18:22.029Z,96746.66
2018-06-05T15:20:50.732Z,96732.08
2018-06-05T15:23:19.444Z,96737.81
2018-06-05T15:25:48.203Z,96738.37
2018-06-05T15:28:17.042Z,96745.00
2018-06-05T15:30:45.854Z,96741.01
2018-06-05T15:33:14.996Z,96737.17
2018-06-05T15:35:43.772Z,96738.17
2018-06-05T15:38:12.516Z,96738.19
2018-06-05T15:40:41.324Z,96743.27
2018-06-05T15:43:10.104Z,96736.73
2018-06-05T15:45:38.800Z,96738.78
2018-06-05T15:48:07.631Z,96745.45
2018-06-05T15:50:36.367Z,96748.93
2018-06-05T15:53:05.083Z,96747.59
2018-06-05T15:55:33.849Z,96750.75
2018-06-05T15:58:02.746Z,96753.81
2018-06-05T16:00:31.304Z,96752.74
2018-06-05T16:03:00.092Z,96745.16
2018-06-05T16:05:28.934Z,96756.00
2018-06-05T16:07:57.765Z,96754.84
2018-06-05T16:10:26.568Z,96747.64
2018-06-05T16:12:55.495Z,96753.36
2018-06-05T16:15:24.364Z,96758.92
2018-06-05T16:17:53.119Z,96752.00
2018-06-05T16:20:21.899Z,96746.30
2018-06-05T16:22:50.770Z,96748.41
2018-06-05T16:25:19.465Z,96754.44
2018-06-05T16:27:47.989Z,96756.48
2018-06-05T16:30:16.469Z,96749.08
2018-06-05T16:32:44.989Z,96747.77
2018-06-05T16:35:13.564Z,96749.98
2018-06-05T16:37:42.101Z,96754.42
2018-06-05T16:40:10.648Z,96746.63
2018-06-05T16:42:39.215Z,96750.45
2018-06-05T16:45:07.725Z,96753.84
2018-06-05T16:47:36.279Z,96749.03
2018-06-05T16:50:04.808Z,96752.72
2018-06-05T16:52:33.378Z,96745.34
2018-06-05T16:55:01.908Z,96747.39
2018-06-05T16:57:30.444Z,96748.23
2018-06-05T16:59:58.948Z,96750.48
2018-06-05T17:02:27.532Z,96739.41
2018-06-05T17:04:56.038Z,96754.11
2018-06-05T17:07:24.569Z,96753.70
2018-06-05T17:09:53.099Z,96756.29
2018-06-05T17:12:21.672Z,96749.44
2018-06-05T17:14:50.205Z,96755.51
2018-06-05T17:17:18.734Z,96743.88
2018-06-05T17:19:47.337Z,96747.31
2018-06-05T17:22:15.898Z,96750.84
2018-06-05T17:24:44.417Z,96742.66
2018-06-05T17:27:12.923Z,96743.95
2018-06-05T17:29:41.501Z,96743.52
2018-06-05T17:32:10.005Z,96743.08
2018-06-05T17:34:38.604Z,96744.86
2018-06-05T17:37:07.133Z,96741.88
2018-06-05T17:39:35.687Z,96745.82
2018-06-05T17:42:04.453Z,96748.02
2018-06-05T17:44:33.164Z,96756.72
2018-06-05T17:47:01.757Z,96753.78
2018-06-05T17:49:30.333Z,96754.27
2018-06-05T17:51:58.896Z,96754.72
2018-06-05T17:54:28.016Z,96743.95
2018-06-05T17:56:56.520Z,96747.89
2018-06-05T17:59:25.039Z,96757.81
2018-06-05T18:01:53.649Z,96752.24
2018-06-05T18:04:22.202Z,96755.33
2018-06-05T18:06:50.705Z,96752.31
2018-06-05T18:09:19.243Z,96752.79
2018-06-05T18:11:47.748Z,96745.07
2018-06-05T18:14:16.257Z,96753.23
2018-06-05T18:16:44.781Z,96742.55
2018-06-05T18:19:13.281Z,96750.30
2018-06-05T18:21:41.790Z,96754.16
2018-06-05T18:24:10.300Z,96754.13
2018-06-05T18:26:38.869Z,96754.13
2018-06-05T18:29:07.343Z,96753.25
2018-06-05T18:31:35.871Z,96754.95
2018-06-05T18:34:04.377Z,96757.11
2018-06-05T18:36:32.874Z,96757.92
2018-06-05T18:39:01.377Z,96757.09
2018-06-05T18:41:29.909Z,96760.41
2018-06-05T18:43:58.438Z,96759.58
2018-06-05T18:46:26.983Z,96766.06
2018-06-05T18:48:55.487Z,96764.71
2018-06-05T18:51:23.991Z,96771.12
2018-06-05T18:53:52.502Z,96769.75
2018-06-05T18:56:21.030Z,96772.27
2018-06-05T18:58:49.599Z,96774.84
2018-06-05T19:01:18.150Z,96778.19
2018-06-05T19:03:46.648Z,96780.74
2018-06-05T19:06:15.206Z,96784.13
2018-06-05T19:08:43.718Z,96794.81
2018-06-05T19:11:12.209Z,96799.50
2018-06-05T19:13:40.734Z,96803.72
2018-06-05T19:16:09.267Z,96806.33
2018-06-05T19:18:37.793Z,96812.25
2018-06-05T19:21:06.354Z,96825.87
2018-06-05T19:23:34.878Z,96827.09
2018-06-05T19:26:03.382Z,96834.23
2018-06-05T19:28:31.888Z,96839.20
2018-06-05T19:31:00.392Z,96846.14
2018-06-05T19:33:28.914Z,96854.98
2018-06-05T19:35:57.432Z,96857.57
2018-06-05T19:38:25.924Z,96864.77
2018-06-05T19:40:54.406Z,96863.39
2018-06-05T19:43:22.915Z,96866.78
2018-06-05T19:45:51.410Z,96867.70
2018-06-05T19:48:19.921Z,96871.90
2018-06-05T19:50:48.452Z,96871.78
2018-06-05T19:53:16.992Z,96877.44
2018-06-05T19:55:45.542Z,96874.81
2018-06-05T19:58:14.242Z,96876.06
2018-06-05T20:00:42.789Z,96876.35
2018-06-05T20:03:11.345Z,96873.38
2018-06-05T20:05:39.898Z,96875.50
2018-06-05T20:08:08.436Z,96872.84
2018-06-05T20:10:36.956Z,96870.28
2018-06-05T20:13:05.443Z,96859.47
2018-06-05T20:15:33.956Z,96856.36
2018-06-05T20:18:02.461Z,96853.36
2018-06-05T20:20:30.986Z,96855.50
2018-06-05T20:22:59.479Z,96844.30
2018-06-05T20:25:28.115Z,96833.48
2018-06-05T20:27:56.589Z,96818.45
2018-06-05T20:30:25.129Z,96809.03
2018-06-05T20:32:53.660Z,96796.55
2018-06-05T20:35:22.880Z,96790.52
2018-06-05T20:37:51.917Z,96759.60
2018-06-05T20:40:20.510Z,96724.93
2018-06-05T20:42:49.129Z,96684.20
2018-06-05T20:45:17.713Z,96620.44
2018-06-05T20:47:46.308Z,96573.41
2018-06-05T20:50:14.862Z,96541.74
2018-06-05T20:52:43.408Z,96539.58
2018-06-05T20:55:11.933Z,96511.34
2018-06-05T20:57:40.499Z,96459.25
2018-06-05T21:00:09.962Z,96458.45
2018-06-05T21:02:38.493Z,96413.55
2018-06-05T21:05:06.997Z,96400.75
2018-06-05T21:07:35.709Z,96395.65
2018-06-05T21:10:04.309Z,96372.49
2018-06-05T21:12:32.846Z,96357.55
2018-06-05T21:15:01.355Z,96346.45
2018-06-05T21:17:29.909Z,96366.13
2018-06-05T21:19:58.435Z,96341.20
2018-06-05T21:22:26.968Z,96332.73
2018-06-05T21:24:55.479Z,96323.25
2018-06-05T21:27:25.063Z,96321.95
2018-06-05T21:29:54.267Z,96313.02
2018-06-05T21:32:23.440Z,96317.77
2018-06-05T21:34:53.997Z,96312.58
2018-06-05T21:37:22.808Z,96304.03
2018-06-05T21:39:51.388Z,96301.02
2018-06-05T21:42:20.148Z,96292.85
2018-06-05T21:44:49.712Z,96298.80
2018-06-05T21:47:18.403Z,96293.24
2018-06-05T21:49:47.008Z,96302.63
2018-06-05T21:52:15.764Z,96289.41
2018-06-05T21:54:44.312Z,96277.81
2018-06-05T21:57:12.969Z,96280.36
2018-06-05T21:59:41.553Z,96272.70
2018-06-05T22:02:10.154Z,96268.32
2018-06-05T22:04:38.755Z,96276.45
2018-06-05T22:07:07.444Z,96264.05
2018-06-05T22:09:36.056Z,96263.98
2018-06-05T22:12:04.621Z,96248.50
2018-06-05T22:14:33.269Z,96152.03
2018-06-05T22:17:01.990Z,96232.19
2018-06-05T22:19:30.603Z,96229.52
2018-06-05T22:21:59.255Z,96233.86
2018-06-05T22:24:27.965Z,96230.06
2018-06-05T22:26:56.714Z,96215.00
2018-06-05T22:29:25.316Z,96211.06
2018-06-05T22:31:55.016Z,96221.77
2018-06-05T22:34:23.649Z,96202.88
2018-06-05T22:36:52.394Z,96201.12
2018-06-05T22:39:21.017Z,96201.16
2018-06-05T22:41:49.701Z,96196.80
2018-06-05T22:44:18.317Z,96193.77
2018-06-05T22:46:47.153Z,96200.13
2018-06-05T22:49:15.770Z,96200.91
2018-06-05T22:51:44.417Z,96201.79
2018-06-05T22:54:13.102Z,96203.49
2018-06-05T22:56:41.785Z,96195.72
2018-06-05T22:59:10.408Z,96190.54
2018-06-05T23:01:39.275Z,96199.48
2018-06-05T23:04:07.969Z,96199.89
2018-06-05T23:06:36.625Z,96190.37
2018-06-05T23:09:07.345Z,96185.26
2018-06-05T23:11:36.332Z,96178.31
2018-06-05T23:14:04.972Z,96177.78
2018-06-05T23:16:33.681Z,96181.99
2018-06-05T23:19:02.388Z,96182.09
2018-06-05T23:21:31.084Z,96174.36
2018-06-05T23:23:59.749Z,96173.52
2018-06-05T23:26:28.379Z,96167.86
2018-06-05T23:28:57.064Z,96166.05
2018-06-05T23:31:25.647Z,96161.63
2018-06-05T23:33:54.393Z,96157.33
2018-06-05T23:36:23.094Z,96162.05
2018-06-05T23:38:51.672Z,96162.41
2018-06-05T23:41:20.346Z,96156.38
2018-06-05T23:43:49.016Z,96146.91
2018-06-05T23:46:17.561Z,96143.02
2018-06-05T23:48:46.142Z,96156.78
2018-06-05T23:51:14.712Z,96162.83
2018-06-05T23:53:43.426Z,96160.75
2018-06-05T23:56:12.106Z,96155.12
2018-06-05T23:58:40.747Z,96138.33
